Time;durP1;ratioP1;P1;durP2;ratioP2;P2;SDS_P1;SDS_P2;PMS_P1;PMS_P2;Temp;Humidity;BMP_temperature;BMP_pressure;BME280_temperature;BME280_humidity;BME280_pressure;Samples;Min_cycle;Max_cycle;Signal;HPM_P1;HPM_P2
2021/01/18 00:00:20;;;;;;;13.13;8.93;;;0.00;99.90;;;;;;6272506;22;20046;-84
2021/01/18 00:02:46;;;;;;;12.95;9.30;;;-0.10;99.90;;;;;;6252237;22;20007;-84
2021/01/18 00:05:11;;;;;;;12.18;8.68;;;-0.30;99.90;;;;;;6279268;22;20012;-86
2021/01/18 00:07:48;;;;;;;12.55;8.95;;;-0.20;99.90;;;;;;6252247;22;20078;-86
2021/01/18 00:10:21;;;;;;;10.18;8.18;;;-0.20;99.90;;;;;;6280634;22;20095;-86
2021/01/18 00:13:22;;;;;;;12.38;8.38;;;-0.30;99.90;;;;;;6251179;22;20054;-85
2021/01/18 00:15:47;;;;;;;;;;;-0.20;99.90;;;;;;6251036;22;20016;-86
2021/01/18 00:18:13;;;;;;;9.55;7.60;;;-0.20;99.90;;;;;;6251503;22;19899;-83
2021/01/18 00:20:39;;;;;;;18.30;9.55;;;-0.30;99.90;;;;;;6278361;22;20456;-82
2021/01/18 00:23:17;;;;;;;16.83;8.07;;;-0.20;99.90;;;;;;6225644;22;20004;-83
2021/01/18 00:25:44;;;;;;;12.05;8.68;;;-0.20;99.90;;;;;;6251632;22;20011;-81
2021/01/18 00:28:40;;;;;;;13.52;8.75;;;-0.30;99.90;;;;;;6250585;22;20003;-89
2021/01/18 00:31:07;;;;;;;10.93;8.20;;;-0.30;99.90;;;;;;6226786;22;20004;-84
2021/01/18 00:33:33;;;;;;;15.25;9.68;;;-0.30;99.90;;;;;;6278198;22;20333;-80
2021/01/18 00:35:59;;;;;;;10.82;7.95;;;-0.20;99.90;;;;;;6250668;22;20050;-80
2021/01/18 00:38:25;;;;;;;14.55;10.00;;;-0.20;99.90;;;;;;6250858;22;20376;-81
2021/01/18 00:43:59;;;;;;;10.60;8.20;;;-0.20;99.90;;;;;;6278952;22;20054;-85
2021/01/18 00:46:25;;;;;;;12.85;9.43;;;-0.30;99.90;;;;;;6250899;22;20033;-84
2021/01/18 00:49:16;;;;;;;16.73;9.40;;;-0.20;99.90;;;;;;6250922;22;19999;-84
2021/01/18 00:51:41;;;;;;;;;;;-0.10;99.90;;;;;;6251463;22;20000;-84
2021/01/18 00:54:07;;;;;;;12.85;8.68;;;-0.10;99.90;;;;;;6250982;22;19899;-83
2021/01/18 00:56:33;;;;;;;12.32;8.70;;;-0.10;99.90;;;;;;6249489;22;20020;-82
2021/01/18 00:58:59;;;;;;;13.13;8.55;;;-0.20;99.90;;;;;;6278015;22;20007;-83
2021/01/18 01:01:37;;;;;;;13.15;9.38;;;-0.20;99.90;;;;;;6279045;22;20000;-84
2021/01/18 01:04:12;;;;;;;11.90;7.97;;;-0.10;99.90;;;;;;6251369;22;19999;-85
2021/01/18 01:06:38;;;;;;;11.57;8.27;;;-0.10;99.90;;;;;;6250781;22;20019;-85
2021/01/18 01:09:19;;;;;;;10.73;7.93;;;-0.10;99.90;;;;;;6250479;22;20010;-82
2021/01/18 01:12:24;;;;;;;11.98;8.30;;;0.00;99.90;;;;;;6250028;22;20008;-82
2021/01/18 01:15:08;;;;;;;;;;;;;;;;;;;;;
2021/01/18 01:18:26;;;;;;;11.52;8.50;;;0.00;99.90;;;;;;6276582;22;20094;-82
2021/01/18 01:20:52;;;;;;;10.68;7.93;;;-0.10;99.90;;;;;;6249177;22;20000;-83
2021/01/18 01:23:36;;;;;;;;;;;;;;;;;;;;;
2021/01/18 01:26:48;;;;;;;12.15;8.35;;;0.00;99.90;;;;;;6276933;22;20060;-82
2021/01/18 01:29:14;;;;;;;10.85;8.27;;;0.00;99.90;;;;;;6248743;22;20000;-81
2021/01/18 01:31:40;;;;;;;13.75;8.80;;;0.10;99.90;;;;;;6275977;22;20074;-82
2021/01/18 01:34:06;;;;;;;13.85;9.10;;;0.10;99.90;;;;;;6249504;22;19999;-84
2021/01/18 01:36:31;;;;;;;12.27;8.50;;;0.10;99.90;;;;;;6249978;22;20046;-83
2021/01/18 01:45:22;;;;;;;23.02;13.80;;;0.00;99.90;;;;;;6278031;22;20056;-83
2021/01/18 01:47:51;;;;;;;21.75;12.73;;;-0.10;99.90;;;;;;6279414;22;20015;-89
2021/01/18 01:50:20;;;;;;;27.60;14.73;;;-0.40;99.90;;;;;;6250763;22;20058;-83
2021/01/18 01:53:08;;;;;;;24.35;15.32;;;-0.60;99.90;;;;;;6276244;22;20004;-84
2021/01/18 01:56:05;;;;;;;23.70;14.88;;;-0.20;99.90;;;;;;6276539;22;20152;-81
2021/01/18 01:58:31;;;;;;;22.58;13.70;;;-0.10;99.90;;;;;;6249330;22;20324;-81
2021/01/18 02:00:58;;;;;;;25.67;14.68;;;-0.50;99.90;;;;;;6275547;22;20003;-84
2021/01/18 02:03:40;;;;;;;22.90;13.40;;;-0.30;99.90;;;;;;6275974;22;20198;-83
2021/01/18 02:06:07;;;;;;;18.27;11.88;;;-0.20;99.90;;;;;;6249293;22;20012;-81
2021/01/18 02:08:33;;;;;;;20.90;12.88;;;-0.60;99.90;;;;;;6248790;22;20023;-80
2021/01/18 02:11:00;;;;;;;20.90;12.90;;;-0.50;99.90;;;;;;6248175;22;20035;-82
2021/01/18 02:14:03;;;;;;;21.13;13.00;;;-0.50;99.90;;;;;;6249691;22;20003;-82
2021/01/18 02:16:51;;;;;;;23.42;13.48;;;-0.60;99.90;;;;;;6274717;22;20305;-81
2021/01/18 02:19:39;;;;;;;17.88;11.57;;;-0.30;99.90;;;;;;6248680;22;20008;-83
2021/01/18 02:22:38;;;;;;;19.50;12.32;;;-0.80;99.90;;;;;;6249251;22;19999;-85
2021/01/18 02:25:18;;;;;;;18.73;11.98;;;-1.10;99.90;;;;;;6276642;22;20070;-81
2021/01/18 02:28:17;;;;;;;17.17;12.23;;;-0.80;99.90;;;;;;6274720;22;19996;-81
2021/01/18 02:31:06;;;;;;;21.88;12.25;;;-0.30;99.90;;;;;;6248207;22;20004;-83
2021/01/18 02:33:51;;;;;;;21.73;12.82;;;-0.30;99.90;;;;;;6248444;22;20061;-82
2021/01/18 02:36:55;;;;;;;19.60;12.80;;;0.00;99.90;;;;;;6275207;22;20008;-82
2021/01/18 02:39:57;;;;;;;19.52;12.50;;;0.10;99.90;;;;;;6269120;22;20004;-83
2021/01/18 02:43:03;;;;;;;24.77;12.80;;;0.20;99.90;;;;;;6248117;22;20046;-84
2021/01/18 02:45:32;;;;;;;24.67;13.65;;;0.30;99.90;;;;;;6248656;22;20090;-84
2021/01/18 02:48:11;;;;;;;24.55;15.18;;;0.30;99.90;;;;;;6249007;22;20031;-83
2021/01/18 02:50:38;;;;;;;22.23;13.40;;;0.30;99.90;;;;;;6248777;22;20061;-86
2021/01/18 02:53:10;;;;;;;23.00;13.27;;;0.30;99.90;;;;;;6250341;22;19999;-81
2021/01/18 02:55:40;;;;;;;24.77;13.25;;;0.30;99.90;;;;;;6278007;22;20004;-83
2021/01/18 02:58:14;;;;;;;21.60;12.98;;;0.30;99.90;;;;;;6248988;22;20433;-84
2021/01/18 03:07:13;;;;;;;48.88;25.92;;;-0.20;99.90;;;;;;6276696;22;20016;-81
2021/01/18 03:09:48;;;;;;;25.30;15.45;;;0.30;99.90;;;;;;6139709;22;20016;-82
2021/01/18 03:12:22;;;;;;;20.98;13.20;;;0.20;99.90;;;;;;6278096;22;20002;-83
2021/01/18 03:14:53;;;;;;;19.38;12.70;;;0.30;99.90;;;;;;6251054;22;20299;-82
2021/01/18 03:17:26;;;;;;;16.60;12.50;;;0.40;99.90;;;;;;6277163;22;20011;-84
2021/01/18 03:22:44;;;;;;;19.23;12.13;;;0.30;99.90;;;;;;6277700;22;20022;-84
2021/01/18 03:25:10;;;;;;;18.27;11.23;;;0.30;99.90;;;;;;6277311;22;20004;-83
2021/01/18 03:27:57;;;;;;;21.38;11.75;;;0.40;99.90;;;;;;6250527;22;20428;-81
2021/01/18 03:33:51;;;;;;;19.33;10.80;;;0.10;99.90;;;;;;6276747;22;20011;-81
2021/01/18 03:36:16;;;;;;;17.77;11.27;;;-0.60;99.90;;;;;;6249919;22;19999;-82
2021/01/18 03:38:53;;;;;;;16.52;10.75;;;-1.10;99.90;;;;;;6249609;22;20062;-82
2021/01/18 03:41:19;;;;;;;18.55;10.93;;;-1.00;99.90;;;;;;6276579;22;20004;-81
2021/01/18 03:43:57;;;;;;;17.38;10.23;;;-0.60;99.90;;;;;;6276976;22;20030;-84
2021/01/18 03:46:23;;;;;;;13.85;10.05;;;-0.50;99.90;;;;;;6248862;22;20018;-81
2021/01/18 03:48:48;;;;;;;15.23;9.77;;;-0.30;99.90;;;;;;6249294;22;20007;-81
2021/01/18 03:51:20;;;;;;;13.40;9.27;;;-0.80;99.90;;;;;;6276236;22;20000;-81
2021/01/18 03:53:46;;;;;;;16.52;9.25;;;-0.40;99.90;;;;;;6275737;22;20023;-79
2021/01/18 03:56:13;;;;;;;14.23;9.65;;;-0.50;99.90;;;;;;6276311;22;20070;-82
2021/01/18 04:05:29;;;;;;;11.98;8.77;;;-1.20;98.30;;;;;;6269532;22;20030;-84
2021/01/18 04:08:40;;;;;;;10.52;7.93;;;-1.30;97.90;;;;;;6249874;22;20007;-83
2021/01/18 04:33:10;;;;;;;9.50;7.55;;;-1.30;92.40;;;;;;6277975;22;20053;-82
2021/01/18 04:36:01;;;;;;;9.57;7.55;;;-1.20;91.70;;;;;;6249652;22;20004;-84
2021/01/18 04:42:13;;;;;;;10.45;7.45;;;-1.30;89.40;;;;;;6277555;22;19937;-82
2021/01/18 04:44:43;;;;;;;9.30;6.97;;;-1.20;92.40;;;;;;6276335;22;20007;-84
2021/01/18 04:47:19;;;;;;;12.93;8.23;;;-1.40;90.40;;;;;;6277645;22;20004;-83
2021/01/18 04:50:31;;;;;;;7.57;6.57;;;-1.60;90.80;;;;;;6250049;22;19996;-86
2021/01/18 05:00:03;;;;;;;8.05;7.18;;;-1.40;89.30;;;;;;6155433;23;20124;-86
2021/01/18 05:05:57;;;;;;;9.85;7.72;;;-1.50;87.20;;;;;;6154033;23;20013;-83
2021/01/18 05:11:51;;;;;;;9.88;6.78;;;-1.30;87.20;;;;;;6154952;23;20099;-84
2021/01/18 05:20:54;;;;;;;7.25;5.95;;;-1.80;87.40;;;;;;6269356;22;20074;-83
2021/01/18 05:23:26;;;;;;;9.15;7.38;;;-1.90;86.90;;;;;;6250639;22;20221;-83
2021/01/18 05:26:22;;;;;;;9.05;7.20;;;-1.80;88.50;;;;;;6277571;22;19996;-84
2021/01/18 05:28:48;;;;;;;8.48;6.55;;;-1.80;89.20;;;;;;6276788;22;20058;-83
2021/01/18 05:31:36;;;;;;;7.15;6.03;;;-1.90;88.60;;;;;;6277005;22;20011;-81
2021/01/18 05:34:13;;;;;;;9.45;7.07;;;-1.80;87.90;;;;;;6249875;22;20015;-82
2021/01/18 05:40:19;;;;;;;9.85;7.18;;;-1.60;87.90;;;;;;6277591;22;20066;-82
2021/01/18 05:42:45;;;;;;;16.75;6.55;;;-1.80;90.10;;;;;;6277698;22;19991;-82
2021/01/18 05:45:24;;;;;;;8.75;7.00;;;-1.90;89.70;;;;;;6276350;22;19999;-83
2021/01/18 05:47:58;;;;;;;12.82;7.70;;;-1.90;90.00;;;;;;6276962;22;20003;-82
2021/01/18 05:50:34;;;;;;;10.30;6.93;;;-1.60;90.40;;;;;;6249698;22;20004;-84
2021/01/18 05:53:19;;;;;;;7.80;6.38;;;-1.80;89.60;;;;;;6249989;22;20004;-81
2021/01/18 05:55:48;;;;;;;8.27;7.18;;;-1.90;89.80;;;;;;6277330;22;20019;-83
2021/01/18 05:58:42;;;;;;;9.73;6.85;;;-1.90;90.10;;;;;;6250694;22;20010;-81
2021/01/18 06:01:08;;;;;;;9.63;6.97;;;-1.80;90.40;;;;;;6277391;22;19996;-83
2021/01/18 06:03:36;;;;;;;11.40;7.65;;;-1.90;90.60;;;;;;6277578;22;20008;-81
2021/01/18 06:06:02;;;;;;;8.20;6.53;;;-1.90;90.00;;;;;;6277008;22;19995;-82
2021/01/18 06:12:33;;;;;;;9.00;7.20;;;-1.90;87.20;;;;;;6208784;22;20008;-82
2021/01/18 06:15:06;;;;;;;13.52;7.10;;;-1.90;85.40;;;;;;6250275;22;20004;-83
2021/01/18 06:17:32;;;;;;;9.90;6.70;;;-1.60;85.60;;;;;;6249824;22;20433;-82
2021/01/18 06:20:04;;;;;;;10.18;7.07;;;-1.60;83.50;;;;;;6249943;22;20050;-82
2021/01/18 06:23:08;;;;;;;9.65;7.35;;;-1.60;84.20;;;;;;6250326;22;20075;-85
2021/01/18 06:30:45;;;;;;;13.65;8.55;;;0.00;91.20;;;;;;6246358;22;20012;-84
2021/01/18 06:36:35;;;;;;;10.23;7.45;;;-1.00;81.00;;;;;;6245834;23;20109;-82
2021/01/18 06:39:30;;;;;;;12.15;7.47;;;-1.00;80.30;;;;;;6220078;23;20489;-82
2021/01/18 06:42:27;;;;;;;10.45;7.50;;;-0.90;80.40;;;;;;6213918;23;20004;-84
2021/01/18 06:44:53;;;;;;;11.23;8.00;;;-0.80;84.20;;;;;;6223782;23;20027;-86
2021/01/18 06:47:32;;;;;;;10.95;7.82;;;-0.50;79.30;;;;;;6247088;23;20060;-82
2021/01/18 06:53:53;;;;;;;11.32;7.65;;;-1.30;77.40;;;;;;6245718;23;20066;-84
2021/01/18 06:56:41;;;;;;;9.82;8.07;;;-1.50;81.60;;;;;;6219696;23;20315;-82
2021/01/18 07:09:47;;;;;;;9.55;7.28;;;0.80;97.40;;;;;;6228410;22;20071;-81
2021/01/18 07:12:24;;;;;;;10.13;7.70;;;-0.70;70.30;;;;;;6276720;22;19996;-83
2021/01/18 07:15:11;;;;;;;10.73;7.85;;;-0.60;77.50;;;;;;6276866;22;20075;-84
2021/01/18 07:17:57;;;;;;;13.18;7.88;;;-0.80;79.40;;;;;;6275293;22;20003;-85
2021/01/18 07:20:31;;;;;;;11.20;7.93;;;-0.60;78.30;;;;;;6277193;22;20326;-84
2021/01/18 07:23:15;;;;;;;10.90;7.72;;;-0.30;78.50;;;;;;6275968;22;20007;-81
2021/01/18 07:25:47;;;;;;;10.35;7.47;;;-0.10;76.00;;;;;;6250768;22;20090;-84
2021/01/18 07:28:19;;;;;;;14.45;7.95;;;-0.40;75.00;;;;;;6277095;22;20100;-86
2021/01/18 07:30:46;;;;;;;13.63;7.95;;;-0.90;79.20;;;;;;6277462;22;20074;-81
2021/01/18 07:33:17;;;;;;;12.25;8.13;;;-0.40;79.10;;;;;;6249905;22;20337;-84
2021/01/18 07:35:46;;;;;;;;;;;0.00;74.50;;;;;;6250415;22;20004;-87
2021/01/18 07:38:14;;;;;;;12.90;8.55;;;-0.30;74.30;;;;;;6250680;22;19943;-85
2021/01/18 07:41:34;;;;;;;12.50;8.48;;;0.30;72.80;;;;;;6279071;22;20026;-82
2021/01/18 07:44:00;;;;;;;12.13;6.65;;;0.30;71.40;;;;;;6124914;23;20377;-85
2021/01/18 07:46:28;;;;;;;11.45;8.20;;;-0.10;69.40;;;;;;6196794;23;20492;-85
2021/01/18 07:52:10;;;;;;;11.85;8.57;;;0.10;69.90;;;;;;6270818;22;20077;-83
2021/01/18 07:54:36;;;;;;;10.35;7.07;;;0.60;71.00;;;;;;6251955;22;20565;-85
2021/01/18 07:57:31;;;;;;;13.40;8.38;;;0.90;66.70;;;;;;6251905;22;20027;-83
2021/01/18 08:00:18;;;;;;;11.32;8.48;;;1.20;66.90;;;;;;6253353;22;20006;-85
2021/01/18 08:02:48;;;;;;;11.30;8.43;;;1.30;65.90;;;;;;6252400;22;20329;-86
2021/01/18 08:05:34;;;;;;;9.10;7.50;;;1.60;63.20;;;;;;6279081;22;20007;-84
2021/01/18 08:08:13;;;;;;;10.85;7.30;;;1.20;61.40;;;;;;6279496;22;20000;-86
2021/01/18 08:11:22;;;;;;;11.73;7.38;;;1.20;61.20;;;;;;6279788;22;20039;-86
2021/01/18 08:14:16;;;;;;;11.93;7.88;;;0.90;62.20;;;;;;6252435;22;20010;-83
2021/01/18 08:16:42;;;;;;;9.57;7.18;;;1.20;59.60;;;;;;6279438;22;20012;-85
2021/01/18 08:19:26;;;;;;;11.07;7.95;;;1.40;59.30;;;;;;6278570;22;20000;-84
2021/01/18 08:22:00;;;;;;;9.57;7.05;;;1.10;59.60;;;;;;6252259;22;20096;-84
2021/01/18 08:24:50;;;;;;;9.27;7.50;;;1.20;59.60;;;;;;6254247;22;20000;-84
2021/01/18 08:27:54;;;;;;;11.60;7.43;;;0.70;58.80;;;;;;6255593;22;20466;-85
2021/01/18 08:31:16;;;;;;;10.40;7.00;;;1.10;59.20;;;;;;6279568;22;20007;-86
2021/01/18 08:33:41;;;;;;;11.32;6.90;;;1.60;57.50;;;;;;6252710;22;20483;-82
2021/01/18 08:36:32;;;;;;;9.23;7.55;;;1.50;57.00;;;;;;6252328;22;20012;-85
2021/01/18 08:39:11;;;;;;;11.48;6.90;;;1.60;56.10;;;;;;6278883;22;19999;-83
2021/01/18 08:41:45;;;;;;;11.15;6.63;;;1.50;56.80;;;;;;6252404;22;19995;-83
2021/01/18 08:44:12;;;;;;;9.13;7.00;;;1.40;55.60;;;;;;6251615;22;20314;-86
2021/01/18 08:46:40;;;;;;;11.07;7.70;;;2.20;56.00;;;;;;6251296;22;20006;-83
2021/01/18 08:49:31;;;;;;;13.02;6.38;;;2.90;56.30;;;;;;6277993;22;19995;-82
2021/01/18 08:51:58;;;;;;;8.43;6.55;;;3.70;54.40;;;;;;6277957;22;20011;-83
2021/01/18 08:54:38;;;;;;;9.02;6.85;;;4.00;51.50;;;;;;6249866;22;20030;-84
2021/01/18 08:57:19;;;;;;;8.40;6.43;;;4.30;50.90;;;;;;6250171;22;20015;-84
2021/01/18 08:59:59;;;;;;;9.93;7.35;;;4.60;50.70;;;;;;6278243;22;19999;-84
2021/01/18 09:02:27;;;;;;;6.90;6.07;;;3.50;50.70;;;;;;6250484;22;20031;-84
2021/01/18 09:04:52;;;;;;;9.52;6.68;;;3.80;50.30;;;;;;6250159;22;20004;-83
2021/01/18 09:07:18;;;;;;;9.25;6.85;;;4.00;51.20;;;;;;6277791;22;19996;-85
2021/01/18 09:09:44;;;;;;;10.05;7.03;;;4.20;49.40;;;;;;6250382;22;20501;-83
2021/01/18 09:12:11;;;;;;;13.07;7.90;;;4.70;49.30;;;;;;6250326;22;19999;-81
2021/01/18 09:14:37;;;;;;;10.10;7.63;;;5.20;49.20;;;;;;6249315;22;20073;-86
2021/01/18 09:17:09;;;;;;;11.05;7.55;;;4.80;46.50;;;;;;6278190;22;20004;-85
2021/01/18 09:19:54;;;;;;;9.82;7.68;;;4.00;48.50;;;;;;6277878;22;20004;-83
2021/01/18 09:22:23;;;;;;;12.00;7.60;;;4.70;49.60;;;;;;6278110;22;20003;-85
2021/01/18 09:24:50;;;;;;;10.15;7.38;;;5.10;47.60;;;;;;6250672;22;20425;-84
2021/01/18 09:27:16;;;;;;;10.85;7.15;;;5.60;47.30;;;;;;6277644;22;20000;-83
2021/01/18 09:29:57;;;;;;;11.23;6.88;;;5.80;47.00;;;;;;6278863;22;20018;-83
2021/01/18 09:32:25;;;;;;;;;;;5.40;45.70;;;;;;6278515;22;20010;-81
2021/01/18 09:35:13;;;;;;;10.23;7.18;;;4.40;47.00;;;;;;6277792;22;19910;-85
2021/01/18 09:37:42;;;;;;;17.35;6.57;;;4.80;47.00;;;;;;6279166;22;20012;-87
2021/01/18 09:40:09;;;;;;;10.35;7.00;;;4.70;48.10;;;;;;6277719;22;19992;-85
2021/01/18 09:42:41;;;;;;;8.88;6.65;;;4.90;46.60;;;;;;6251464;22;20677;-85
2021/01/18 09:45:10;;;;;;;9.93;7.18;;;5.40;46.90;;;;;;6277184;22;20004;-86
2021/01/18 09:47:37;;;;;;;10.52;6.60;;;5.70;45.90;;;;;;6278069;22;19996;-83
2021/01/18 09:50:11;;;;;;;9.25;6.50;;;5.90;45.30;;;;;;6278090;22;20581;-85
2021/01/18 09:52:47;;;;;;;8.73;6.35;;;6.20;45.40;;;;;;6277518;22;20034;-85
2021/01/18 09:55:17;;;;;;;9.70;6.97;;;6.20;44.50;;;;;;6277598;22;20380;-85
2021/01/18 09:58:04;;;;;;;10.30;6.82;;;6.50;44.60;;;;;;6250856;22;20047;-84
2021/01/18 10:00:33;;;;;;;11.48;7.32;;;6.50;43.70;;;;;;6250916;22;20356;-84
2021/01/18 10:03:12;;;;;;;10.45;7.50;;;7.00;43.40;;;;;;6251124;22;20006;-83
2021/01/18 10:05:40;;;;;;;10.70;7.25;;;7.10;43.20;;;;;;6251440;22;20355;-84
2021/01/18 10:08:28;;;;;;;8.77;6.65;;;7.10;42.90;;;;;;6250873;22;20421;-87
2021/01/18 10:10:54;;;;;;;10.70;6.95;;;6.10;41.60;;;;;;6250803;22;20026;-85
2021/01/18 10:13:29;;;;;;;9.32;7.20;;;3.40;46.90;;;;;;6246852;22;20011;-84
2021/01/18 10:16:05;;;;;;;9.48;6.85;;;4.40;47.30;;;;;;6275045;22;20012;-83
2021/01/18 10:18:39;;;;;;;8.80;6.38;;;5.30;44.60;;;;;;6276532;22;19996;-86
2021/01/18 10:21:06;;;;;;;10.25;7.25;;;6.20;44.00;;;;;;6250193;22;20000;-86
2021/01/18 10:23:39;;;;;;;13.70;7.18;;;6.30;43.10;;;;;;6250776;22;20027;-83
2021/01/18 10:26:25;;;;;;;10.50;7.55;;;6.90;43.20;;;;;;6250152;22;20379;-84
2021/01/18 10:28:59;;;;;;;8.63;6.45;;;7.40;42.90;;;;;;6277007;22;19995;-84
2021/01/18 10:31:30;;;;;;;9.90;7.13;;;7.50;42.20;;;;;;6275896;22;20000;-85
2021/01/18 10:34:23;;;;;;;10.77;7.10;;;6.90;41.40;;;;;;6249550;22;20314;-83
2021/01/18 10:36:51;;;;;;;11.35;6.32;;;7.40;42.00;;;;;;6249217;22;20093;-84
2021/01/18 10:39:30;;;;;;;9.88;7.10;;;7.70;41.40;;;;;;6250518;22;20321;-85
2021/01/18 10:42:05;;;;;;;9.35;7.00;;;7.10;40.70;;;;;;6276584;22;20010;-83
2021/01/18 10:44:34;;;;;;;8.65;6.68;;;7.60;41.50;;;;;;6277392;22;20019;-82
2021/01/18 10:47:12;;;;;;;7.90;6.53;;;8.10;40.60;;;;;;6275601;22;20003;-83
2021/01/18 10:49:38;;;;;;;9.30;6.65;;;8.30;40.10;;;;;;6277201;22;20014;-84
2021/01/18 10:52:10;;;;;;;10.27;7.25;;;7.80;40.10;;;;;;6249256;22;20016;-85
2021/01/18 10:54:37;;;;;;;14.18;8.25;;;6.20;43.00;;;;;;6276483;22;20015;-85
2021/01/18 10:57:22;;;;;;;30.55;17.90;;;7.00;40.40;;;;;;6249400;22;20012;-84
2021/01/18 11:00:15;;;;;;;18.55;12.85;;;7.10;42.30;;;;;;6276651;22;20303;-84
2021/01/18 11:02:42;;;;;;;11.73;7.07;;;7.70;40.90;;;;;;6257322;22;20000;-85
2021/01/18 11:05:11;;;;;;;11.50;7.40;;;7.20;39.90;;;;;;6249563;22;20063;-84
2021/01/18 11:07:38;;;;;;;12.25;8.15;;;7.90;42.00;;;;;;6249917;22;20030;-85
2021/01/18 11:10:05;;;;;;;12.98;8.02;;;8.50;40.60;;;;;;6277386;22;20088;-83
2021/01/18 11:12:38;;;;;;;8.93;6.53;;;8.80;39.20;;;;;;6249646;22;20436;-85
2021/01/18 11:15:19;;;;;;;9.30;6.70;;;7.90;38.00;;;;;;6279768;22;20023;-86
2021/01/18 11:17:53;;;;;;;;;;;7.80;39.90;;;;;;6278501;22;20437;-84
2021/01/18 11:20:30;;;;;;;12.20;6.90;;;8.50;39.40;;;;;;6252135;22;19907;-85
2021/01/18 11:22:56;;;;;;;12.13;8.27;;;8.70;38.40;;;;;;6251591;22;20483;-84
2021/01/18 11:25:22;;;;;;;12.35;8.48;;;8.10;40.50;;;;;;6252504;22;20007;-87
2021/01/18 11:27:48;;;;;;;12.07;8.77;;;7.70;40.90;;;;;;6279224;22;20003;-85
2021/01/18 11:30:29;;;;;;;11.18;8.02;;;7.90;41.80;;;;;;6252371;22;20086;-85
2021/01/18 11:32:55;;;;;;;15.45;9.07;;;7.60;40.40;;;;;;6279364;22;20368;-84
2021/01/18 11:35:20;;;;;;;14.15;9.23;;;7.70;41.10;;;;;;6252498;22;20004;-86
2021/01/18 11:37:46;;;;;;;14.27;8.27;;;7.90;41.20;;;;;;6278956;22;20019;-86
2021/01/18 11:40:15;;;;;;;13.50;8.35;;;8.30;41.20;;;;;;6252587;22;20528;-84
2021/01/18 11:43:17;;;;;;;11.85;8.82;;;8.20;40.50;;;;;;6251458;22;20010;-84
2021/01/18 11:45:46;;;;;;;17.92;9.25;;;8.60;40.80;;;;;;6250346;22;20011;-85
2021/01/18 11:48:12;;;;;;;14.13;8.55;;;8.70;40.10;;;;;;6276746;22;20012;-85
2021/01/18 11:50:38;;;;;;;13.73;9.60;;;8.10;40.10;;;;;;6278672;22;20052;-84
2021/01/18 11:53:08;;;;;;;13.20;8.68;;;7.30;41.30;;;;;;6277205;22;20074;-87
2021/01/18 11:56:12;;;;;;;12.13;8.70;;;7.60;41.40;;;;;;6277044;22;20051;-85
2021/01/18 11:58:46;;;;;;;12.45;7.85;;;7.70;40.70;;;;;;6203397;22;20334;-86
2021/01/18 12:01:12;;;;;;;10.80;7.60;;;7.80;41.10;;;;;;6220049;23;20012;-85
2021/01/18 12:03:38;;;;;;;10.80;7.47;;;7.70;41.50;;;;;;6219698;23;20007;-86
2021/01/18 12:06:04;;;;;;;15.48;7.72;;;7.50;41.60;;;;;;6220796;23;20477;-84
2021/01/18 12:08:44;;;;;;;11.48;7.35;;;8.20;41.50;;;;;;6211083;23;20034;-84
2021/01/18 12:11:31;;;;;;;12.75;7.60;;;7.90;41.30;;;;;;6221432;23;20004;-83
2021/01/18 12:13:57;;;;;;;10.70;7.45;;;6.50;44.50;;;;;;6219600;23;20060;-84
2021/01/18 12:20:18;;;;;;;;;;;;;;;;;;;;;
2021/01/18 12:23:20;;;;;;;11.70;7.47;;;7.00;44.40;;;;;;6246706;23;20075;-84
2021/01/18 12:26:09;;;;;;;9.32;6.78;;;7.50;43.20;;;;;;6216770;23;20418;-85
2021/01/18 12:28:46;;;;;;;8.57;6.68;;;7.40;43.60;;;;;;6219741;23;20023;-87
2021/01/18 12:31:13;;;;;;;11.23;7.32;;;7.00;43.50;;;;;;6220937;23;20315;-85
2021/01/18 12:33:39;;;;;;;10.80;7.65;;;7.00;44.90;;;;;;6219508;23;20031;-84
2021/01/18 12:36:53;;;;;;;8.80;6.53;;;6.90;44.40;;;;;;6219744;23;20016;-86
2021/01/18 12:39:19;;;;;;;10.55;7.05;;;7.00;44.70;;;;;;6123969;23;20144;-85
2021/01/18 12:49:46;;;;;;;;;;;;;;;;;;;;;
2021/01/18 12:54:12;;;;;;;11.10;8.05;;;6.70;44.30;;;;;;6237438;22;20028;-87
2021/01/18 12:56:40;;;;;;;11.43;7.60;;;6.20;45.10;;;;;;6248906;23;20330;-85
2021/01/18 13:02:46;;;;;;;10.75;7.47;;;6.80;44.90;;;;;;6245730;23;20016;-87
2021/01/18 13:11:09;;;;;;;11.02;7.00;;;7.60;43.30;;;;;;6245324;23;20358;-81
2021/01/18 13:13:54;;;;;;;10.13;7.22;;;11.10;39.60;;;;;;6218475;23;20414;-82
2021/01/18 13:16:32;;;;;;;10.25;7.82;;;13.10;35.50;;;;;;6239200;23;20122;-84
2021/01/18 13:18:58;;;;;;;9.80;7.15;;;13.70;34.50;;;;;;6217429;23;20007;-85
2021/01/18 13:21:25;;;;;;;9.65;6.50;;;12.20;35.80;;;;;;6247181;23;20004;-86
2021/01/18 13:24:16;;;;;;;9.50;6.75;;;10.90;36.20;;;;;;6220187;23;20008;-85
2021/01/18 13:26:41;;;;;;;10.05;6.78;;;11.70;36.00;;;;;;6218738;23;20012;-87
2021/01/18 13:29:07;;;;;;;10.50;6.90;;;12.90;34.70;;;;;;6246544;23;20011;-87
2021/01/18 13:31:48;;;;;;;8.93;6.35;;;14.60;33.60;;;;;;6246798;23;20004;-86
2021/01/18 13:34:34;;;;;;;10.93;6.85;;;15.50;32.40;;;;;;6219339;23;20004;-85
2021/01/18 13:37:03;;;;;;;10.98;7.20;;;15.00;31.70;;;;;;6236449;22;20016;-84
2021/01/18 13:39:29;;;;;;;9.57;6.80;;;14.40;31.90;;;;;;6220426;23;20426;-88
2021/01/18 13:45:36;;;;;;;13.23;7.75;;;10.90;35.60;;;;;;6122729;23;20103;-83
2021/01/18 13:48:02;;;;;;;10.77;7.18;;;9.40;38.10;;;;;;6121123;23;20415;-83
2021/01/18 13:50:31;;;;;;;10.18;6.95;;;9.20;39.10;;;;;;6122655;23;20010;-81
2021/01/18 13:52:57;;;;;;;9.73;6.88;;;8.20;40.10;;;;;;6122179;23;20057;-84
2021/01/18 13:56:10;;;;;;;9.88;7.05;;;7.70;41.10;;;;;;6097137;23;20014;-85
2021/01/18 13:58:35;;;;;;;8.75;6.47;;;8.20;40.70;;;;;;6096065;23;20037;-82
2021/01/18 14:01:01;;;;;;;10.90;7.78;;;8.60;40.30;;;;;;6120926;23;20387;-81
2021/01/18 14:03:27;;;;;;;10.45;7.65;;;8.60;40.30;;;;;;6171750;23;20012;-82
2021/01/18 14:05:53;;;;;;;11.88;8.32;;;7.80;40.00;;;;;;6243028;23;20370;-82
2021/01/18 14:08:22;;;;;;;11.70;7.80;;;7.60;41.40;;;;;;6216970;23;20004;-81
2021/01/18 14:10:57;;;;;;;12.15;8.13;;;7.30;43.10;;;;;;6243777;23;20311;-82
2021/01/18 14:13:23;;;;;;;12.13;8.00;;;7.10;43.30;;;;;;6243398;23;20046;-82
2021/01/18 14:15:56;;;;;;;12.82;8.98;;;6.90;43.50;;;;;;6243678;23;20020;-82
2021/01/18 14:18:21;;;;;;;12.80;9.32;;;6.70;44.40;;;;;;6243399;23;20334;-83
2021/01/18 14:20:47;;;;;;;13.60;9.02;;;6.20;45.00;;;;;;6219339;23;20436;-82
2021/01/18 14:23:13;;;;;;;12.38;8.60;;;6.00;45.90;;;;;;6247968;23;20068;-87
2021/01/18 14:25:39;;;;;;;11.23;8.40;;;5.80;45.40;;;;;;6248022;23;19996;-83
2021/01/18 14:28:05;;;;;;;11.82;8.70;;;5.80;45.70;;;;;;6220087;23;20334;-86
2021/01/18 14:30:31;;;;;;;13.32;9.07;;;5.90;45.40;;;;;;6246754;23;20008;-85
2021/01/18 14:32:57;;;;;;;11.75;8.25;;;6.00;45.50;;;;;;6245153;23;20044;-86
2021/01/18 14:35:34;;;;;;;12.93;8.88;;;5.60;45.00;;;;;;6246024;23;20008;-88
2021/01/18 14:38:01;;;;;;;12.52;9.00;;;5.50;46.10;;;;;;6239513;23;20020;-84
2021/01/18 14:40:44;;;;;;;14.80;9.32;;;5.70;45.80;;;;;;6246840;23;20024;-89
2021/01/18 14:43:10;;;;;;;13.27;9.07;;;5.70;45.40;;;;;;6245402;23;20000;-84
2021/01/18 14:45:36;;;;;;;12.60;9.05;;;5.50;45.70;;;;;;6246688;23;20303;-85
2021/01/18 14:48:02;;;;;;;12.27;8.95;;;5.70;45.90;;;;;;6220038;23;20438;-87
2021/01/18 14:50:29;;;;;;;10.80;8.40;;;5.30;46.20;;;;;;6248043;23;19993;-84
2021/01/18 14:52:58;;;;;;;10.88;8.93;;;4.80;47.10;;;;;;6248227;23;20070;-84
2021/01/18 14:55:25;;;;;;;19.17;9.65;;;4.40;48.10;;;;;;6221241;23;19996;-83
2021/01/18 14:58:20;;;;;;;13.20;9.30;;;4.10;49.00;;;;;;6220387;23;20430;-85
2021/01/18 15:00:45;;;;;;;14.95;9.95;;;3.70;49.50;;;;;;6214809;23;20016;-88
2021/01/18 15:03:14;;;;;;;13.30;9.85;;;3.20;50.80;;;;;;6220415;23;20096;-85
2021/01/18 15:05:46;;;;;;;13.98;9.95;;;2.80;52.10;;;;;;6221650;23;19996;-86
2021/01/18 15:08:13;;;;;;;16.42;10.60;;;2.60;53.10;;;;;;6220608;23;20008;-81
2021/01/18 15:10:39;;;;;;;17.30;10.93;;;2.70;53.60;;;;;;6220392;23;20031;-84
2021/01/18 15:13:05;;;;;;;16.13;10.63;;;2.50;53.90;;;;;;6221771;23;20008;-84
2021/01/18 15:15:37;;;;;;;14.10;10.55;;;2.30;54.50;;;;;;6221736;23;20525;-88
2021/01/18 15:18:03;;;;;;;22.52;10.05;;;2.40;54.20;;;;;;6220647;23;20081;-85
2021/01/18 15:20:28;;;;;;;16.27;9.50;;;2.10;54.70;;;;;;6248634;23;20391;-86
2021/01/18 15:23:16;;;;;;;13.68;9.75;;;2.00;54.90;;;;;;6220798;23;20131;-85
2021/01/18 15:25:42;;;;;;;14.50;10.45;;;1.90;55.40;;;;;;6248054;23;20004;-82
2021/01/18 15:31:56;;;;;;;18.52;11.20;;;1.80;56.00;;;;;;6123820;23;20022;-83
2021/01/18 15:34:28;;;;;;;17.23;11.07;;;1.90;56.10;;;;;;6100448;23;20013;-82
2021/01/18 15:36:54;;;;;;;13.85;10.55;;;2.00;56.30;;;;;;6124571;23;20348;-82
2021/01/18 15:39:22;;;;;;;22.13;13.45;;;1.70;56.50;;;;;;6153681;23;20026;-82
2021/01/18 15:45:04;;;;;;;20.63;12.10;;;1.50;57.80;;;;;;6246764;23;20074;-82
2021/01/18 15:47:33;;;;;;;17.73;11.95;;;1.60;57.70;;;;;;6220116;23;20004;-83
2021/01/18 15:49:58;;;;;;;16.88;11.95;;;1.60;57.80;;;;;;6246883;23;20028;-81
2021/01/18 15:52:24;;;;;;;16.05;11.63;;;1.50;57.80;;;;;;6220135;23;20058;-82